sensor_id;sensor_type;location;lat;lon;timestamp;P1;durP1;ratioP1;P2;durP2;ratioP2
60859;SDS011;46694;54.382;9.708;2023-07-13T00:01:48;9.53;;;4.03;;
60859;SDS011;46694;54.382;9.708;2023-07-13T00:04:28;9.67;;;4.00;;
60859;SDS011;46694;54.382;9.708;2023-07-13T00:07:08;8.27;;;3.67;;
60859;SDS011;46694;54.382;9.708;2023-07-13T00:09:47;21.43;;;4.23;;
60859;SDS011;46694;54.382;9.708;2023-07-13T00:12:31;10.07;;;4.50;;
60859;SDS011;46694;54.382;9.708;2023-07-13T00:15:15;9.17;;;4.87;;
60859;SDS011;46694;54.382;9.708;2023-07-13T00:18:02;12.23;;;6.13;;
60859;SDS011;46694;54.382;9.708;2023-07-13T00:20:41;10.00;;;5.13;;
60859;SDS011;46694;54.382;9.708;2023-07-13T00:23:29;8.00;;;3.97;;
60859;SDS011;46694;54.382;9.708;2023-07-13T00:26:10;8.50;;;4.70;;
60859;SDS011;46694;54.382;9.708;2023-07-13T00:28:51;7.43;;;4.33;;
60859;SDS011;46694;54.382;9.708;2023-07-13T00:31:30;9.47;;;5.13;;
60859;SDS011;46694;54.382;9.708;2023-07-13T00:34:09;17.50;;;4.70;;
60859;SDS011;46694;54.382;9.708;2023-07-13T00:36:49;10.50;;;5.10;;
60859;SDS011;46694;54.382;9.708;2023-07-13T00:39:29;10.47;;;5.13;;
60859;SDS011;46694;54.382;9.708;2023-07-13T00:42:08;11.83;;;5.93;;
60859;SDS011;46694;54.382;9.708;2023-07-13T00:47:51;11.93;;;5.43;;
60859;SDS011;46694;54.382;9.708;2023-07-13T00:50:32;8.20;;;5.37;;
60859;SDS011;46694;54.382;9.708;2023-07-13T00:53:11;16.03;;;5.63;;
60859;SDS011;46694;54.382;9.708;2023-07-13T00:55:51;15.33;;;5.30;;
60859;SDS011;46694;54.382;9.708;2023-07-13T00:58:33;10.60;;;5.47;;
60859;SDS011;46694;54.382;9.708;2023-07-13T01:01:14;11.90;;;4.70;;
60859;SDS011;46694;54.382;9.708;2023-07-13T01:03:54;10.97;;;5.50;;
60859;SDS011;46694;54.382;9.708;2023-07-13T01:06:34;14.43;;;4.97;;
60859;SDS011;46694;54.382;9.708;2023-07-13T01:09:15;19.47;;;5.20;;
60859;SDS011;46694;54.382;9.708;2023-07-13T01:11:55;11.97;;;6.00;;
60859;SDS011;46694;54.382;9.708;2023-07-13T01:14:35;9.07;;;5.37;;
60859;SDS011;46694;54.382;9.708;2023-07-13T01:17:14;11.40;;;5.30;;
60859;SDS011;46694;54.382;9.708;2023-07-13T01:19:54;11.30;;;6.17;;
60859;SDS011;46694;54.382;9.708;2023-07-13T01:22:34;11.73;;;6.03;;
60859;SDS011;46694;54.382;9.708;2023-07-13T01:25:13;9.70;;;6.10;;
60859;SDS011;46694;54.382;9.708;2023-07-13T01:27:53;11.90;;;7.80;;
60859;SDS011;46694;54.382;9.708;2023-07-13T01:30:33;15.13;;;9.13;;
60859;SDS011;46694;54.382;9.708;2023-07-13T01:33:13;18.80;;;10.93;;
60859;SDS011;46694;54.382;9.708;2023-07-13T01:35:55;13.00;;;10.13;;
60859;SDS011;46694;54.382;9.708;2023-07-13T01:38:37;19.20;;;11.60;;
60859;SDS011;46694;54.382;9.708;2023-07-13T01:41:16;18.50;;;11.17;;
60859;SDS011;46694;54.382;9.708;2023-07-13T01:43:56;20.33;;;9.73;;
60859;SDS011;46694;54.382;9.708;2023-07-13T01:46:36;20.20;;;10.27;;
60859;SDS011;46694;54.382;9.708;2023-07-13T01:49:15;15.63;;;9.90;;
60859;SDS011;46694;54.382;9.708;2023-07-13T01:51:55;11.37;;;8.80;;
60859;SDS011;46694;54.382;9.708;2023-07-13T01:54:34;13.70;;;8.00;;
60859;SDS011;46694;54.382;9.708;2023-07-13T01:57:14;15.00;;;7.80;;
60859;SDS011;46694;54.382;9.708;2023-07-13T01:59:54;11.70;;;7.03;;
60859;SDS011;46694;54.382;9.708;2023-07-13T02:02:33;14.33;;;6.17;;
60859;SDS011;46694;54.382;9.708;2023-07-13T02:05:13;11.80;;;6.40;;
60859;SDS011;46694;54.382;9.708;2023-07-13T02:07:53;22.20;;;6.67;;
60859;SDS011;46694;54.382;9.708;2023-07-13T02:10:33;9.27;;;5.43;;
60859;SDS011;46694;54.382;9.708;2023-07-13T02:13:12;12.30;;;5.93;;
60859;SDS011;46694;54.382;9.708;2023-07-13T02:15:52;7.77;;;5.67;;
60859;SDS011;46694;54.382;9.708;2023-07-13T02:18:32;13.57;;;6.67;;
60859;SDS011;46694;54.382;9.708;2023-07-13T02:21:11;10.07;;;5.60;;
60859;SDS011;46694;54.382;9.708;2023-07-13T02:23:51;13.67;;;6.47;;
60859;SDS011;46694;54.382;9.708;2023-07-13T02:26:31;13.50;;;6.93;;
60859;SDS011;46694;54.382;9.708;2023-07-13T02:29:10;12.83;;;6.63;;
60859;SDS011;46694;54.382;9.708;2023-07-13T02:31:50;9.00;;;6.83;;
60859;SDS011;46694;54.382;9.708;2023-07-13T02:34:30;13.73;;;7.37;;
60859;SDS011;46694;54.382;9.708;2023-07-13T02:37:09;11.30;;;6.40;;
60859;SDS011;46694;54.382;9.708;2023-07-13T02:39:49;10.00;;;7.20;;
60859;SDS011;46694;54.382;9.708;2023-07-13T02:42:28;12.33;;;6.30;;
60859;SDS011;46694;54.382;9.708;2023-07-13T02:45:08;8.50;;;6.67;;
60859;SDS011;46694;54.382;9.708;2023-07-13T02:47:48;12.73;;;7.40;;
60859;SDS011;46694;54.382;9.708;2023-07-13T02:50:27;8.80;;;6.13;;
60859;SDS011;46694;54.382;9.708;2023-07-13T02:53:07;7.73;;;6.07;;
60859;SDS011;46694;54.382;9.708;2023-07-13T02:55:47;10.20;;;5.97;;
60859;SDS011;46694;54.382;9.708;2023-07-13T02:58:26;7.33;;;6.30;;
60859;SDS011;46694;54.382;9.708;2023-07-13T03:01:09;15.43;;;8.20;;
60859;SDS011;46694;54.382;9.708;2023-07-13T03:03:50;15.33;;;7.57;;
60859;SDS011;46694;54.382;9.708;2023-07-13T03:06:31;11.93;;;7.53;;
60859;SDS011;46694;54.382;9.708;2023-07-13T03:09:11;10.13;;;7.63;;
60859;SDS011;46694;54.382;9.708;2023-07-13T03:11:54;7.63;;;6.93;;
60859;SDS011;46694;54.382;9.708;2023-07-13T03:14:34;12.93;;;7.70;;
60859;SDS011;46694;54.382;9.708;2023-07-13T03:17:14;13.70;;;7.57;;
60859;SDS011;46694;54.382;9.708;2023-07-13T03:19:53;13.33;;;7.77;;
60859;SDS011;46694;54.382;9.708;2023-07-13T03:22:33;13.00;;;8.80;;
60859;SDS011;46694;54.382;9.708;2023-07-13T03:25:12;13.77;;;7.90;;
60859;SDS011;46694;54.382;9.708;2023-07-13T03:27:52;9.83;;;7.77;;
60859;SDS011;46694;54.382;9.708;2023-07-13T03:30:32;14.67;;;7.93;;
60859;SDS011;46694;54.382;9.708;2023-07-13T03:33:11;10.77;;;8.33;;
60859;SDS011;46694;54.382;9.708;2023-07-13T03:35:51;10.17;;;8.67;;
60859;SDS011;46694;54.382;9.708;2023-07-13T03:38:31;9.70;;;8.13;;
60859;SDS011;46694;54.382;9.708;2023-07-13T03:41:11;15.27;;;9.33;;
60859;SDS011;46694;54.382;9.708;2023-07-13T03:43:51;13.83;;;8.87;;
60859;SDS011;46694;54.382;9.708;2023-07-13T03:46:31;10.60;;;8.37;;
60859;SDS011;46694;54.382;9.708;2023-07-13T03:49:10;14.80;;;8.00;;
60859;SDS011;46694;54.382;9.708;2023-07-13T03:51:50;13.30;;;9.30;;
60859;SDS011;46694;54.382;9.708;2023-07-13T03:54:29;9.83;;;8.90;;
60859;SDS011;46694;54.382;9.708;2023-07-13T03:57:10;11.10;;;8.60;;
60859;SDS011;46694;54.382;9.708;2023-07-13T03:59:49;11.67;;;8.47;;
60859;SDS011;46694;54.382;9.708;2023-07-13T04:02:29;13.60;;;8.40;;
60859;SDS011;46694;54.382;9.708;2023-07-13T04:05:08;15.37;;;8.20;;
60859;SDS011;46694;54.382;9.708;2023-07-13T04:07:48;15.90;;;8.97;;
60859;SDS011;46694;54.382;9.708;2023-07-13T04:10:28;14.90;;;9.10;;
60859;SDS011;46694;54.382;9.708;2023-07-13T04:13:07;14.23;;;9.07;;
60859;SDS011;46694;54.382;9.708;2023-07-13T04:15:47;15.27;;;8.40;;
60859;SDS011;46694;54.382;9.708;2023-07-13T04:21:23;15.57;;;7.50;;
60859;SDS011;46694;54.382;9.708;2023-07-13T04:24:03;21.00;;;7.80;;
60859;SDS011;46694;54.382;9.708;2023-07-13T04:26:43;11.50;;;8.30;;
60859;SDS011;46694;54.382;9.708;2023-07-13T04:29:22;10.00;;;8.03;;
60859;SDS011;46694;54.382;9.708;2023-07-13T04:32:02;14.27;;;7.60;;
60859;SDS011;46694;54.382;9.708;2023-07-13T04:34:42;11.57;;;6.83;;
60859;SDS011;46694;54.382;9.708;2023-07-13T04:37:21;13.00;;;6.20;;
60859;SDS011;46694;54.382;9.708;2023-07-13T04:40:01;9.50;;;5.70;;
60859;SDS011;46694;54.382;9.708;2023-07-13T04:42:41;12.10;;;5.90;;
60859;SDS011;46694;54.382;9.708;2023-07-13T04:45:22;7.87;;;5.33;;
60859;SDS011;46694;54.382;9.708;2023-07-13T04:48:03;22.30;;;6.57;;
60859;SDS011;46694;54.382;9.708;2023-07-13T04:50:43;12.50;;;5.67;;
60859;SDS011;46694;54.382;9.708;2023-07-13T04:53:22;10.23;;;5.17;;
60859;SDS011;46694;54.382;9.708;2023-07-13T04:56:03;13.83;;;5.90;;
60859;SDS011;46694;54.382;9.708;2023-07-13T05:01:50;13.80;;;4.53;;
60859;SDS011;46694;54.382;9.708;2023-07-13T05:04:29;8.57;;;5.20;;
60859;SDS011;46694;54.382;9.708;2023-07-13T05:07:09;16.30;;;6.33;;
60859;SDS011;46694;54.382;9.708;2023-07-13T05:09:48;14.57;;;6.00;;
60859;SDS011;46694;54.382;9.708;2023-07-13T05:12:28;12.03;;;5.17;;
60859;SDS011;46694;54.382;9.708;2023-07-13T05:15:08;12.43;;;5.10;;
60859;SDS011;46694;54.382;9.708;2023-07-13T05:17:48;9.57;;;4.73;;
60859;SDS011;46694;54.382;9.708;2023-07-13T05:20:28;10.80;;;3.87;;
60859;SDS011;46694;54.382;9.708;2023-07-13T05:23:08;11.20;;;3.70;;
60859;SDS011;46694;54.382;9.708;2023-07-13T05:25:48;15.50;;;3.40;;
60859;SDS011;46694;54.382;9.708;2023-07-13T05:28:28;9.63;;;3.50;;
60859;SDS011;46694;54.382;9.708;2023-07-13T05:31:10;9.83;;;2.37;;
60859;SDS011;46694;54.382;9.708;2023-07-13T05:33:49;3.37;;;2.50;;
60859;SDS011;46694;54.382;9.708;2023-07-13T05:36:29;6.77;;;1.87;;
60859;SDS011;46694;54.382;9.708;2023-07-13T05:39:09;7.03;;;2.17;;
60859;SDS011;46694;54.382;9.708;2023-07-13T05:44:38;2.20;;;1.53;;
60859;SDS011;46694;54.382;9.708;2023-07-13T05:47:18;6.50;;;1.27;;
60859;SDS011;46694;54.382;9.708;2023-07-13T05:49:57;9.00;;;1.80;;
60859;SDS011;46694;54.382;9.708;2023-07-13T05:52:37;7.37;;;2.70;;
60859;SDS011;46694;54.382;9.708;2023-07-13T05:55:17;9.87;;;3.40;;
60859;SDS011;46694;54.382;9.708;2023-07-13T05:57:59;14.50;;;3.57;;
60859;SDS011;46694;54.382;9.708;2023-07-13T06:00:39;12.43;;;4.57;;
60859;SDS011;46694;54.382;9.708;2023-07-13T06:03:19;16.33;;;4.33;;
60859;SDS011;46694;54.382;9.708;2023-07-13T06:05:59;11.20;;;4.27;;
60859;SDS011;46694;54.382;9.708;2023-07-13T06:08:39;12.33;;;5.93;;
60859;SDS011;46694;54.382;9.708;2023-07-13T06:11:20;14.73;;;4.53;;
60859;SDS011;46694;54.382;9.708;2023-07-13T06:14:02;7.07;;;3.73;;
60859;SDS011;46694;54.382;9.708;2023-07-13T06:16:42;10.97;;;4.13;;
60859;SDS011;46694;54.382;9.708;2023-07-13T06:19:22;12.90;;;5.13;;
60859;SDS011;46694;54.382;9.708;2023-07-13T06:22:01;12.27;;;4.50;;
60859;SDS011;46694;54.382;9.708;2023-07-13T06:24:41;23.37;;;4.80;;
60859;SDS011;46694;54.382;9.708;2023-07-13T06:27:21;13.57;;;3.93;;
60859;SDS011;46694;54.382;9.708;2023-07-13T06:30:00;13.40;;;3.93;;
60859;SDS011;46694;54.382;9.708;2023-07-13T06:32:40;12.63;;;3.43;;
60859;SDS011;46694;54.382;9.708;2023-07-13T06:35:20;9.00;;;4.07;;
60859;SDS011;46694;54.382;9.708;2023-07-13T06:37:59;14.33;;;3.53;;
60859;SDS011;46694;54.382;9.708;2023-07-13T06:40:39;16.37;;;3.63;;
60859;SDS011;46694;54.382;9.708;2023-07-13T06:43:18;8.80;;;3.50;;
60859;SDS011;46694;54.382;9.708;2023-07-13T06:45:59;11.47;;;3.20;;
60859;SDS011;46694;54.382;9.708;2023-07-13T06:51:30;9.07;;;2.30;;
60859;SDS011;46694;54.382;9.708;2023-07-13T06:54:10;7.10;;;2.40;;
60859;SDS011;46694;54.382;9.708;2023-07-13T06:56:49;10.63;;;3.03;;
60859;SDS011;46694;54.382;9.708;2023-07-13T06:59:29;9.07;;;2.80;;
60859;SDS011;46694;54.382;9.708;2023-07-13T07:02:10;11.63;;;3.30;;
60859;SDS011;46694;54.382;9.708;2023-07-13T07:04:50;10.80;;;3.17;;
60859;SDS011;46694;54.382;9.708;2023-07-13T07:07:29;14.10;;;2.43;;
60859;SDS011;46694;54.382;9.708;2023-07-13T07:10:09;13.83;;;2.90;;
60859;SDS011;46694;54.382;9.708;2023-07-13T07:12:49;9.00;;;3.20;;
60859;SDS011;46694;54.382;9.708;2023-07-13T07:15:29;11.10;;;3.27;;
60859;SDS011;46694;54.382;9.708;2023-07-13T07:18:09;14.13;;;4.17;;
60859;SDS011;46694;54.382;9.708;2023-07-13T07:20:48;16.20;;;3.90;;
60859;SDS011;46694;54.382;9.708;2023-07-13T07:23:28;12.20;;;3.63;;
60859;SDS011;46694;54.382;9.708;2023-07-13T07:26:08;15.90;;;4.70;;
60859;SDS011;46694;54.382;9.708;2023-07-13T07:28:48;14.17;;;3.50;;
60859;SDS011;46694;54.382;9.708;2023-07-13T07:31:31;7.23;;;2.00;;
60859;SDS011;46694;54.382;9.708;2023-07-13T07:34:11;4.30;;;1.50;;
60859;SDS011;46694;54.382;9.708;2023-07-13T07:36:50;7.40;;;2.00;;
60859;SDS011;46694;54.382;9.708;2023-07-13T07:39:29;5.33;;;2.00;;
60859;SDS011;46694;54.382;9.708;2023-07-13T07:42:09;4.37;;;2.30;;
60859;SDS011;46694;54.382;9.708;2023-07-13T07:44:48;9.60;;;2.80;;
60859;SDS011;46694;54.382;9.708;2023-07-13T07:47:28;12.27;;;2.77;;
60859;SDS011;46694;54.382;9.708;2023-07-13T07:50:08;3.70;;;2.50;;
60859;SDS011;46694;54.382;9.708;2023-07-13T07:52:48;9.30;;;2.13;;
60859;SDS011;46694;54.382;9.708;2023-07-13T07:55:28;6.47;;;2.50;;
60859;SDS011;46694;54.382;9.708;2023-07-13T07:58:07;7.37;;;2.20;;
60859;SDS011;46694;54.382;9.708;2023-07-13T08:00:47;6.33;;;2.40;;
60859;SDS011;46694;54.382;9.708;2023-07-13T08:03:26;12.07;;;2.43;;
60859;SDS011;46694;54.382;9.708;2023-07-13T08:06:06;8.70;;;2.70;;
60859;SDS011;46694;54.382;9.708;2023-07-13T08:08:45;8.07;;;2.40;;
60859;SDS011;46694;54.382;9.708;2023-07-13T08:11:25;10.70;;;2.87;;
60859;SDS011;46694;54.382;9.708;2023-07-13T08:14:05;9.40;;;2.60;;
60859;SDS011;46694;54.382;9.708;2023-07-13T08:16:44;11.60;;;3.40;;
60859;SDS011;46694;54.382;9.708;2023-07-13T08:19:24;9.17;;;2.80;;
60859;SDS011;46694;54.382;9.708;2023-07-13T08:22:04;10.23;;;2.67;;
60859;SDS011;46694;54.382;9.708;2023-07-13T08:24:43;11.57;;;2.63;;
60859;SDS011;46694;54.382;9.708;2023-07-13T08:27:23;10.50;;;2.50;;
60859;SDS011;46694;54.382;9.708;2023-07-13T08:30:04;11.27;;;2.77;;
60859;SDS011;46694;54.382;9.708;2023-07-13T08:32:44;7.07;;;2.60;;
60859;SDS011;46694;54.382;9.708;2023-07-13T08:35:23;4.30;;;2.40;;
60859;SDS011;46694;54.382;9.708;2023-07-13T08:38:04;8.60;;;2.00;;
60859;SDS011;46694;54.382;9.708;2023-07-13T08:40:43;5.43;;;2.60;;
60859;SDS011;46694;54.382;9.708;2023-07-13T08:43:30;4.93;;;2.37;;
60859;SDS011;46694;54.382;9.708;2023-07-13T08:46:24;5.07;;;1.77;;
60859;SDS011;46694;54.382;9.708;2023-07-13T08:49:13;2.10;;;1.37;;
60859;SDS011;46694;54.382;9.708;2023-07-13T08:52:00;4.07;;;1.80;;
60859;SDS011;46694;54.382;9.708;2023-07-13T08:54:52;7.43;;;1.90;;
60859;SDS011;46694;54.382;9.708;2023-07-13T08:57:36;12.60;;;3.13;;
60859;SDS011;46694;54.382;9.708;2023-07-13T09:00:18;6.23;;;1.57;;
60859;SDS011;46694;54.382;9.708;2023-07-13T09:02:59;4.57;;;1.50;;
60859;SDS011;46694;54.382;9.708;2023-07-13T09:05:40;7.37;;;2.70;;
60859;SDS011;46694;54.382;9.708;2023-07-13T09:12:01;8.73;;;2.73;;
60859;SDS011;46694;54.382;9.708;2023-07-13T09:14:53;5.73;;;2.30;;
60859;SDS011;46694;54.382;9.708;2023-07-13T09:17:41;8.43;;;2.10;;
60859;SDS011;46694;54.382;9.708;2023-07-13T09:23:35;2.50;;;1.83;;
60859;SDS011;46694;54.382;9.708;2023-07-13T09:29:32;4.27;;;1.83;;
60859;SDS011;46694;54.382;9.708;2023-07-13T09:32:11;4.00;;;1.83;;
60859;SDS011;46694;54.382;9.708;2023-07-13T09:34:54;7.20;;;1.67;;
60859;SDS011;46694;54.382;9.708;2023-07-13T09:37:34;7.67;;;2.57;;
60859;SDS011;46694;54.382;9.708;2023-07-13T09:40:22;6.93;;;1.67;;
60859;SDS011;46694;54.382;9.708;2023-07-13T09:43:14;7.87;;;1.80;;
60859;SDS011;46694;54.382;9.708;2023-07-13T09:45:56;4.60;;;1.73;;
60859;SDS011;46694;54.382;9.708;2023-07-13T09:48:35;7.60;;;1.90;;
60859;SDS011;46694;54.382;9.708;2023-07-13T09:51:15;6.60;;;1.63;;
60859;SDS011;46694;54.382;9.708;2023-07-13T09:53:55;6.43;;;2.10;;
60859;SDS011;46694;54.382;9.708;2023-07-13T09:56:35;4.60;;;1.43;;
60859;SDS011;46694;54.382;9.708;2023-07-13T09:59:19;8.37;;;1.70;;
60859;SDS011;46694;54.382;9.708;2023-07-13T10:02:01;5.73;;;1.43;;
60859;SDS011;46694;54.382;9.708;2023-07-13T10:04:43;5.67;;;1.23;;
60859;SDS011;46694;54.382;9.708;2023-07-13T10:07:23;5.23;;;1.50;;
60859;SDS011;46694;54.382;9.708;2023-07-13T10:10:03;7.70;;;1.30;;
60859;SDS011;46694;54.382;9.708;2023-07-13T10:12:53;5.00;;;1.23;;
60859;SDS011;46694;54.382;9.708;2023-07-13T10:15:32;2.80;;;1.70;;
60859;SDS011;46694;54.382;9.708;2023-07-13T10:18:12;5.07;;;1.70;;
60859;SDS011;46694;54.382;9.708;2023-07-13T10:21:08;5.10;;;2.10;;
60859;SDS011;46694;54.382;9.708;2023-07-13T10:23:53;6.77;;;1.33;;
60859;SDS011;46694;54.382;9.708;2023-07-13T10:26:39;2.70;;;1.07;;
60859;SDS011;46694;54.382;9.708;2023-07-13T10:29:30;6.40;;;1.33;;
60859;SDS011;46694;54.382;9.708;2023-07-13T10:32:17;6.50;;;1.50;;
60859;SDS011;46694;54.382;9.708;2023-07-13T10:35:02;4.63;;;1.20;;
60859;SDS011;46694;54.382;9.708;2023-07-13T10:37:48;3.23;;;1.13;;
60859;SDS011;46694;54.382;9.708;2023-07-13T10:40:37;8.40;;;1.47;;
60859;SDS011;46694;54.382;9.708;2023-07-13T10:46:19;4.70;;;1.77;;
60859;SDS011;46694;54.382;9.708;2023-07-13T10:49:04;8.33;;;1.40;;
60859;SDS011;46694;54.382;9.708;2023-07-13T10:51:48;5.37;;;1.30;;
60859;SDS011;46694;54.382;9.708;2023-07-13T10:54:33;7.87;;;1.87;;
60859;SDS011;46694;54.382;9.708;2023-07-13T10:57:20;5.33;;;1.30;;
60859;SDS011;46694;54.382;9.708;2023-07-13T11:02:59;2.83;;;0.73;;
60859;SDS011;46694;54.382;9.708;2023-07-13T11:05:42;1.47;;;0.77;;
60859;SDS011;46694;54.382;9.708;2023-07-13T11:11:37;15.83;;;1.70;;
60859;SDS011;46694;54.382;9.708;2023-07-13T11:23:07;4.80;;;1.10;;
60859;SDS011;46694;54.382;9.708;2023-07-13T11:25:48;7.07;;;1.57;;
60859;SDS011;46694;54.382;9.708;2023-07-13T11:28:29;6.60;;;1.10;;
60859;SDS011;46694;54.382;9.708;2023-07-13T11:31:13;4.00;;;0.90;;
60859;SDS011;46694;54.382;9.708;2023-07-13T11:33:56;1.43;;;0.60;;
60859;SDS011;46694;54.382;9.708;2023-07-13T11:36:37;5.53;;;0.83;;
60859;SDS011;46694;54.382;9.708;2023-07-13T11:39:27;8.93;;;0.70;;
60859;SDS011;46694;54.382;9.708;2023-07-13T11:42:12;2.50;;;1.00;;
60859;SDS011;46694;54.382;9.708;2023-07-13T11:44:55;7.47;;;1.40;;
60859;SDS011;46694;54.382;9.708;2023-07-13T11:47:34;2.70;;;1.17;;
60859;SDS011;46694;54.382;9.708;2023-07-13T11:50:20;5.60;;;1.37;;
60859;SDS011;46694;54.382;9.708;2023-07-13T11:53:02;4.23;;;1.07;;
60859;SDS011;46694;54.382;9.708;2023-07-13T11:55:42;2.20;;;1.37;;
60859;SDS011;46694;54.382;9.708;2023-07-13T11:58:23;10.27;;;1.27;;
60859;SDS011;46694;54.382;9.708;2023-07-13T12:01:04;5.17;;;1.47;;
60859;SDS011;46694;54.382;9.708;2023-07-13T12:03:45;8.20;;;0.90;;
60859;SDS011;46694;54.382;9.708;2023-07-13T12:06:26;3.00;;;0.73;;
60859;SDS011;46694;54.382;9.708;2023-07-13T12:09:14;4.77;;;1.20;;
60859;SDS011;46694;54.382;9.708;2023-07-13T12:11:58;2.50;;;1.17;;
60859;SDS011;46694;54.382;9.708;2023-07-13T12:14:39;5.97;;;1.30;;
60859;SDS011;46694;54.382;9.708;2023-07-13T12:17:20;4.17;;;1.07;;
60859;SDS011;46694;54.382;9.708;2023-07-13T12:20:03;6.03;;;1.17;;
60859;SDS011;46694;54.382;9.708;2023-07-13T12:23:15;5.03;;;1.50;;
60859;SDS011;46694;54.382;9.708;2023-07-13T12:26:11;6.27;;;1.47;;
60859;SDS011;46694;54.382;9.708;2023-07-13T12:28:52;6.47;;;1.90;;
60859;SDS011;46694;54.382;9.708;2023-07-13T12:31:42;3.33;;;1.23;;
60859;SDS011;46694;54.382;9.708;2023-07-13T12:34:25;6.57;;;1.47;;
60859;SDS011;46694;54.382;9.708;2023-07-13T12:37:08;5.57;;;1.10;;
60859;SDS011;46694;54.382;9.708;2023-07-13T12:39:51;4.60;;;1.03;;
60859;SDS011;46694;54.382;9.708;2023-07-13T12:42:31;4.93;;;1.43;;
60859;SDS011;46694;54.382;9.708;2023-07-13T12:48:13;8.93;;;1.80;;
60859;SDS011;46694;54.382;9.708;2023-07-13T12:50:55;9.17;;;1.70;;
60859;SDS011;46694;54.382;9.708;2023-07-13T12:53:40;4.60;;;1.07;;
60859;SDS011;46694;54.382;9.708;2023-07-13T12:56:27;7.10;;;1.57;;
60859;SDS011;46694;54.382;9.708;2023-07-13T12:59:09;3.67;;;1.40;;
60859;SDS011;46694;54.382;9.708;2023-07-13T13:01:57;8.03;;;1.47;;
60859;SDS011;46694;54.382;9.708;2023-07-13T13:04:39;5.20;;;1.77;;
60859;SDS011;46694;54.382;9.708;2023-07-13T13:07:19;6.13;;;1.77;;
60859;SDS011;46694;54.382;9.708;2023-07-13T13:09:59;8.33;;;1.37;;
60859;SDS011;46694;54.382;9.708;2023-07-13T13:12:38;3.80;;;1.20;;
60859;SDS011;46694;54.382;9.708;2023-07-13T13:15:21;8.13;;;1.67;;
60859;SDS011;46694;54.382;9.708;2023-07-13T13:18:02;3.43;;;1.20;;
60859;SDS011;46694;54.382;9.708;2023-07-13T13:20:41;11.07;;;1.40;;
60859;SDS011;46694;54.382;9.708;2023-07-13T13:23:21;5.00;;;1.20;;
60859;SDS011;46694;54.382;9.708;2023-07-13T13:26:02;6.53;;;1.63;;
60859;SDS011;46694;54.382;9.708;2023-07-13T13:28:47;3.60;;;1.77;;
60859;SDS011;46694;54.382;9.708;2023-07-13T13:31:29;7.03;;;1.77;;
60859;SDS011;46694;54.382;9.708;2023-07-13T13:34:13;5.33;;;1.17;;
60859;SDS011;46694;54.382;9.708;2023-07-13T13:36:54;5.80;;;1.63;;
60859;SDS011;46694;54.382;9.708;2023-07-13T13:39:34;4.07;;;1.10;;
60859;SDS011;46694;54.382;9.708;2023-07-13T13:42:18;8.17;;;1.43;;
60859;SDS011;46694;54.382;9.708;2023-07-13T13:44:59;7.80;;;1.30;;
60859;SDS011;46694;54.382;9.708;2023-07-13T13:47:39;8.53;;;1.60;;
60859;SDS011;46694;54.382;9.708;2023-07-13T13:50:20;6.33;;;1.30;;
60859;SDS011;46694;54.382;9.708;2023-07-13T13:53:03;8.57;;;1.63;;
60859;SDS011;46694;54.382;9.708;2023-07-13T13:55:43;7.70;;;1.40;;
60859;SDS011;46694;54.382;9.708;2023-07-13T13:58:22;3.23;;;1.20;;
60859;SDS011;46694;54.382;9.708;2023-07-13T14:01:03;4.13;;;1.10;;
60859;SDS011;46694;54.382;9.708;2023-07-13T14:03:46;5.83;;;1.60;;
60859;SDS011;46694;54.382;9.708;2023-07-13T14:06:30;8.77;;;1.40;;
60859;SDS011;46694;54.382;9.708;2023-07-13T14:09:11;3.83;;;1.20;;
60859;SDS011;46694;54.382;9.708;2023-07-13T14:11:54;6.00;;;1.53;;
60859;SDS011;46694;54.382;9.708;2023-07-13T14:14:34;6.40;;;1.97;;
60859;SDS011;46694;54.382;9.708;2023-07-13T14:17:20;6.63;;;1.27;;
60859;SDS011;46694;54.382;9.708;2023-07-13T14:20:04;5.83;;;1.33;;
60859;SDS011;46694;54.382;9.708;2023-07-13T14:22:50;7.00;;;1.30;;
60859;SDS011;46694;54.382;9.708;2023-07-13T14:25:31;6.10;;;1.70;;
60859;SDS011;46694;54.382;9.708;2023-07-13T14:28:19;9.33;;;1.80;;
60859;SDS011;46694;54.382;9.708;2023-07-13T14:31:01;6.20;;;1.00;;
60859;SDS011;46694;54.382;9.708;2023-07-13T14:33:41;5.23;;;1.33;;
60859;SDS011;46694;54.382;9.708;2023-07-13T14:36:23;4.40;;;1.57;;
60859;SDS011;46694;54.382;9.708;2023-07-13T14:39:12;4.60;;;1.13;;
60859;SDS011;46694;54.382;9.708;2023-07-13T14:41:57;8.27;;;1.57;;
60859;SDS011;46694;54.382;9.708;2023-07-13T14:44:37;13.53;;;1.57;;
60859;SDS011;46694;54.382;9.708;2023-07-13T14:47:18;5.97;;;1.13;;
60859;SDS011;46694;54.382;9.708;2023-07-13T14:49:58;7.80;;;1.53;;
60859;SDS011;46694;54.382;9.708;2023-07-13T14:52:37;6.17;;;1.50;;
60859;SDS011;46694;54.382;9.708;2023-07-13T14:55:17;10.20;;;1.67;;
60859;SDS011;46694;54.382;9.708;2023-07-13T14:57:58;5.20;;;1.60;;
60859;SDS011;46694;54.382;9.708;2023-07-13T15:00:37;12.57;;;1.77;;
60859;SDS011;46694;54.382;9.708;2023-07-13T15:03:18;5.63;;;1.30;;
60859;SDS011;46694;54.382;9.708;2023-07-13T15:06:01;3.20;;;0.93;;
60859;SDS011;46694;54.382;9.708;2023-07-13T15:08:41;7.77;;;1.60;;
60859;SDS011;46694;54.382;9.708;2023-07-13T15:11:21;6.37;;;1.20;;
60859;SDS011;46694;54.382;9.708;2023-07-13T15:14:01;3.37;;;1.00;;
60859;SDS011;46694;54.382;9.708;2023-07-13T15:16:41;2.93;;;1.20;;
60859;SDS011;46694;54.382;9.708;2023-07-13T15:19:29;8.33;;;1.33;;
60859;SDS011;46694;54.382;9.708;2023-07-13T15:22:12;3.33;;;1.40;;
60859;SDS011;46694;54.382;9.708;2023-07-13T15:24:51;5.53;;;1.27;;
60859;SDS011;46694;54.382;9.708;2023-07-13T15:27:31;4.83;;;1.43;;
60859;SDS011;46694;54.382;9.708;2023-07-13T15:30:10;6.33;;;0.93;;
60859;SDS011;46694;54.382;9.708;2023-07-13T15:32:51;2.63;;;0.70;;
60859;SDS011;46694;54.382;9.708;2023-07-13T15:35:33;3.50;;;1.00;;
60859;SDS011;46694;54.382;9.708;2023-07-13T15:38:16;3.83;;;1.37;;
60859;SDS011;46694;54.382;9.708;2023-07-13T15:41:01;4.20;;;1.30;;
60859;SDS011;46694;54.382;9.708;2023-07-13T15:43:44;5.93;;;1.70;;
60859;SDS011;46694;54.382;9.708;2023-07-13T15:46:25;7.07;;;1.60;;
60859;SDS011;46694;54.382;9.708;2023-07-13T15:49:08;11.90;;;2.53;;
60859;SDS011;46694;54.382;9.708;2023-07-13T15:51:48;7.50;;;1.70;;
60859;SDS011;46694;54.382;9.708;2023-07-13T15:54:28;5.90;;;1.60;;
60859;SDS011;46694;54.382;9.708;2023-07-13T15:57:08;6.47;;;1.40;;
60859;SDS011;46694;54.382;9.708;2023-07-13T15:59:50;10.40;;;2.30;;
60859;SDS011;46694;54.382;9.708;2023-07-13T16:02:30;8.03;;;1.50;;
60859;SDS011;46694;54.382;9.708;2023-07-13T16:05:09;4.37;;;1.57;;
60859;SDS011;46694;54.382;9.708;2023-07-13T16:07:52;7.20;;;1.80;;
60859;SDS011;46694;54.382;9.708;2023-07-13T16:10:34;11.03;;;2.10;;
60859;SDS011;46694;54.382;9.708;2023-07-13T16:13:19;5.07;;;1.60;;
60859;SDS011;46694;54.382;9.708;2023-07-13T16:15:59;8.93;;;2.20;;
60859;SDS011;46694;54.382;9.708;2023-07-13T16:18:39;8.77;;;2.00;;
60859;SDS011;46694;54.382;9.708;2023-07-13T16:21:23;3.90;;;1.73;;
60859;SDS011;46694;54.382;9.708;2023-07-13T16:24:07;5.10;;;1.53;;
60859;SDS011;46694;54.382;9.708;2023-07-13T16:26:56;9.20;;;1.80;;
60859;SDS011;46694;54.382;9.708;2023-07-13T16:29:40;35.83;;;3.90;;
60859;SDS011;46694;54.382;9.708;2023-07-13T16:32:20;8.63;;;1.40;;
60859;SDS011;46694;54.382;9.708;2023-07-13T16:35:00;8.40;;;1.87;;
60859;SDS011;46694;54.382;9.708;2023-07-13T16:37:39;5.27;;;1.17;;
60859;SDS011;46694;54.382;9.708;2023-07-13T16:40:21;3.33;;;1.20;;
60859;SDS011;46694;54.382;9.708;2023-07-13T16:43:08;7.50;;;1.60;;
60859;SDS011;46694;54.382;9.708;2023-07-13T16:45:58;6.70;;;1.63;;
60859;SDS011;46694;54.382;9.708;2023-07-13T16:52:15;6.50;;;1.90;;
60859;SDS011;46694;54.382;9.708;2023-07-13T16:55:00;3.93;;;1.40;;
60859;SDS011;46694;54.382;9.708;2023-07-13T16:57:41;5.70;;;1.53;;